Time;durP1;ratioP1;P1;durP2;ratioP2;P2;SDS_P1;SDS_P2;PMS_P1;PMS_P2;Temp;Humidity;BMP_temperature;BMP_pressure;BME280_temperature;BME280_humidity;BME280_pressure;Samples;Min_cycle;Max_cycle;Signal;HPM_P1;HPM_P2
2022/05/14 00:01:26;;;;;;;7.00;4.10;;;;;;;14.71;55.27;99832.56;1792994;80;21092;-58
2022/05/14 00:03:56;;;;;;;10.43;4.22;;;;;;;14.69;55.20;99819.55;1792932;79;20985;-58
2022/05/14 00:06:27;;;;;;;7.45;4.05;;;;;;;14.67;55.61;99820.33;1792978;80;20973;-60
2022/05/14 00:08:55;;;;;;;15.23;6.75;;;;;;;14.65;55.85;99823.86;1792977;79;20980;-60
2022/05/14 00:14:13;;;;;;;18.75;7.30;;;;;;;14.61;55.84;99822.66;1793033;80;20996;-58
2022/05/14 00:16:41;;;;;;;18.73;7.20;;;;;;;14.59;55.91;99816.55;1792950;80;21035;-59
2022/05/14 00:19:10;;;;;;;15.48;7.25;;;;;;;14.57;56.14;99812.65;1792923;80;20988;-59
2022/05/14 00:21:39;;;;;;;13.90;6.33;;;;;;;14.54;56.43;99810.91;1792882;80;21040;-59
2022/05/14 00:24:08;;;;;;;12.50;5.75;;;;;;;14.51;56.59;99807.25;1792898;80;20981;-58
2022/05/14 00:26:38;;;;;;;11.00;4.42;;;;;;;14.48;56.93;99811.31;1793033;80;20992;-58
2022/05/14 00:29:07;;;;;;;9.83;4.90;;;;;;;14.43;57.02;99804.30;1792944;80;21004;-59
2022/05/14 00:31:36;;;;;;;11.60;5.35;;;;;;;14.39;57.13;99802.22;1792921;79;20980;-58
2022/05/14 00:34:04;;;;;;;15.85;5.80;;;;;;;14.36;57.38;99802.70;1792861;80;21451;-58
2022/05/14 00:36:33;;;;;;;8.95;5.20;;;;;;;14.34;57.44;99803.47;1792966;80;20992;-59
2022/05/14 00:39:02;;;;;;;7.05;4.20;;;;;;;14.30;57.58;99792.05;1792917;80;20970;-58
2022/05/14 00:41:31;;;;;;;7.67;4.03;;;;;;;14.25;57.71;99798.27;1792954;80;21012;-60
2022/05/14 00:44:00;;;;;;;7.50;4.05;;;;;;;14.25;57.87;99802.95;1792970;79;20997;-60
2022/05/14 00:46:48;;;;;;;9.38;4.28;;;;;;;14.21;58.06;99794.84;1792931;80;20972;-59
2022/05/14 00:49:20;;;;;;;8.90;4.17;;;;;;;14.20;58.26;99795.39;1792894;80;21353;-58
2022/05/14 00:51:49;;;;;;;10.60;4.90;;;;;;;14.19;58.35;99794.25;1774305;80;21416;-59
2022/05/14 00:54:23;;;;;;;11.48;5.03;;;;;;;14.17;58.43;99788.97;1776439;80;21376;-59
2022/05/14 00:56:59;;;;;;;10.60;4.65;;;;;;;14.16;58.59;99789.20;1800998;79;20988;-60
2022/05/14 00:59:28;;;;;;;8.03;4.15;;;;;;;14.13;58.74;99785.02;1801405;79;20968;-59
2022/05/14 01:01:58;;;;;;;8.58;4.08;;;;;;;14.12;58.79;99786.09;1776801;80;21012;-58
2022/05/14 01:04:29;;;;;;;8.10;4.47;;;;;;;14.12;58.85;99778.36;1777291;79;21099;-58
2022/05/14 01:07:15;;;;;;;8.55;4.28;;;;;;;14.11;59.27;99776.14;1801095;80;20984;-57
2022/05/14 01:09:54;;;;;;;7.65;4.05;;;;;;;14.09;59.31;99776.08;1801280;80;21437;-58
2022/05/14 01:12:24;;;;;;;6.87;3.90;;;;;;;14.10;59.38;99777.22;1801139;80;20980;-59
2022/05/14 01:14:54;;;;;;;5.30;3.45;;;;;;;14.07;59.63;99776.31;1751715;80;21016;-59
2022/05/14 01:17:22;;;;;;;7.85;3.70;;;;;;;14.04;59.82;99767.14;1801002;80;21372;-59
2022/05/14 01:19:53;;;;;;;5.50;3.17;;;;;;;14.00;59.87;99772.82;1801047;79;20952;-58
2022/05/14 01:23:00;;;;;;;7.90;3.58;;;;;;;14.00;60.03;99774.20;1801088;80;21360;-58
2022/05/14 01:26:29;;;;;;;4.80;3.05;;;;;;;13.99;60.12;99768.92;1801314;80;20995;-57
2022/05/14 01:29:11;;;;;;;7.42;3.25;;;;;;;13.95;60.49;99765.80;1800895;79;21004;-59
2022/05/14 01:31:41;;;;;;;5.95;2.98;;;;;;;13.89;60.61;99759.86;1747547;81;20980;-62
2022/05/14 01:34:14;;;;;;;5.40;3.05;;;;;;;13.87;60.76;99763.38;1745364;82;21431;-57
2022/05/14 01:36:43;;;;;;;5.30;3.27;;;;;;;13.83;60.83;99762.17;1743810;82;21007;-58
2022/05/14 01:39:13;;;;;;;6.25;3.50;;;;;;;13.81;60.92;99760.20;1744016;82;20984;-58
2022/05/14 01:41:43;;;;;;;4.95;3.12;;;;;;;13.78;61.00;99758.75;1743861;82;21115;-59
2022/05/14 01:44:12;;;;;;;7.20;3.15;;;;;;;13.78;61.09;99762.03;1739188;82;21538;-58
2022/05/14 01:46:41;;;;;;;8.28;3.52;;;;;;;13.79;61.21;99759.05;1739136;82;20984;-58
2022/05/14 01:49:10;;;;;;;6.90;3.27;;;;;;;13.79;61.41;99759.59;1739020;82;21011;-58
2022/05/14 01:51:39;;;;;;;6.67;3.00;;;;;;;13.79;61.62;99762.34;1731581;82;21484;-59
2022/05/14 01:54:09;;;;;;;6.85;3.30;;;;;;;13.75;61.68;99761.12;1723473;83;20989;-59
2022/05/14 01:56:38;;;;;;;3.95;2.70;;;;;;;13.73;61.78;99767.41;1723650;83;21004;-58
2022/05/14 01:59:09;;;;;;;6.20;3.15;;;;;;;13.75;61.83;99770.77;1723709;83;20992;-58
2022/05/14 02:01:38;;;;;;;7.30;2.90;;;;;;;13.75;61.88;99771.61;1723641;83;20985;-60
2022/05/14 02:04:13;;;;;;;6.97;2.85;;;;;;;13.74;62.03;99769.09;1725452;83;20989;-59
2022/05/14 02:06:42;;;;;;;8.38;3.25;;;;;;;13.72;62.25;99772.08;1725382;83;21009;-59
2022/05/14 02:09:13;;;;;;;5.75;2.60;;;;;;;13.72;62.42;99761.06;1724358;83;20985;-60
2022/05/14 02:11:44;;;;;;;9.13;3.50;;;;;;;13.67;62.68;99760.92;1723709;83;20949;-59
2022/05/14 02:14:16;;;;;;;8.55;3.25;;;;;;;13.63;62.92;99756.39;1722938;83;21465;-59
2022/05/14 02:16:44;;;;;;;8.00;3.55;;;;;;;13.61;63.06;99751.66;1723489;82;20985;-59
2022/05/14 02:19:13;;;;;;;6.55;2.92;;;;;;;13.58;63.18;99746.62;1723514;83;20972;-59
2022/05/14 02:21:42;;;;;;;6.65;3.02;;;;;;;13.58;63.38;99749.37;1723469;83;20993;-59
2022/05/14 02:24:12;;;;;;;9.45;3.35;;;;;;;13.59;63.48;99749.67;1723490;82;20961;-57
2022/05/14 02:26:42;;;;;;;5.65;3.37;;;;;;;13.60;63.62;99747.22;1723554;83;20993;-59
2022/05/14 02:29:11;;;;;;;7.90;3.22;;;;;;;13.60;63.67;99743.63;1723462;83;20981;-58
2022/05/14 02:31:40;;;;;;;6.45;3.30;;;;;;;13.58;63.76;99742.48;1723442;83;21120;-59
2022/05/14 02:34:09;;;;;;;10.88;3.65;;;;;;;13.54;64.02;99742.65;1723545;83;21060;-58
2022/05/14 02:36:39;;;;;;;8.33;3.75;;;;;;;13.56;64.15;99747.92;1723520;83;21001;-59
2022/05/14 02:39:08;;;;;;;7.03;4.08;;;;;;;13.59;64.17;99748.30;1723399;83;21000;-58
2022/05/14 02:41:37;;;;;;;14.50;5.03;;;;;;;13.65;64.09;99742.39;1723423;83;20973;-59
2022/05/14 02:44:06;;;;;;;7.55;4.50;;;;;;;13.67;64.04;99751.83;1723587;83;21016;-60
2022/05/14 02:46:34;;;;;;;9.25;4.60;;;;;;;13.67;64.01;99740.27;1723484;83;21009;-58
2022/05/14 02:49:05;;;;;;;15.28;5.03;;;;;;;13.70;63.99;99740.34;1723293;83;21037;-58
2022/05/14 02:51:33;;;;;;;12.00;5.40;;;;;;;13.72;63.93;99732.69;1723432;83;21064;-60
2022/05/14 02:54:02;;;;;;;9.73;4.50;;;;;;;13.74;63.92;99731.38;1735130;83;21383;-58
2022/05/14 02:56:31;;;;;;;10.18;4.87;;;;;;;13.79;63.90;99730.67;1735158;83;20975;-58
2022/05/14 02:59:07;;;;;;;7.55;4.37;;;;;;;13.83;63.87;99731.89;1734903;83;21007;-60
2022/05/14 03:01:47;;;;;;;7.57;4.00;;;;;;;13.88;63.81;99732.02;1735243;82;20998;-59
2022/05/14 03:04:09;;;;;;;8.28;4.22;;;;;;;13.88;63.81;99723.22;1735157;82;20979;-59
2022/05/14 03:06:39;;;;;;;7.42;3.98;;;;;;;13.92;63.95;99723.05;1734976;83;20976;-59
2022/05/14 03:09:08;;;;;;;7.80;3.70;;;;;;;13.94;63.91;99714.02;1710375;83;21584;-58
2022/05/14 03:11:38;;;;;;;9.08;3.72;;;;;;;13.99;63.90;99727.07;1735021;82;21415;-58
2022/05/14 03:14:07;;;;;;;11.73;3.80;;;;;;;14.05;63.93;99730.26;1734972;83;20952;-59
2022/05/14 03:16:37;;;;;;;9.43;4.20;;;;;;;14.08;63.99;99742.72;1734926;83;21431;-59
2022/05/14 03:19:06;;;;;;;9.70;3.95;;;;;;;14.10;63.96;99744.70;1734951;83;21355;-59
2022/05/14 03:21:35;;;;;;;8.60;4.00;;;;;;;14.13;63.88;99740.94;1735136;83;20983;-59
2022/05/14 03:24:06;;;;;;;9.75;4.08;;;;;;;14.15;63.88;99737.94;1735182;82;20983;-59
2022/05/14 03:26:36;;;;;;;6.90;3.98;;;;;;;14.18;64.22;99738.84;1734959;83;21043;-58
2022/05/14 03:29:04;;;;;;;7.67;4.35;;;;;;;14.19;64.33;99735.84;1734893;83;21031;-58
2022/05/14 03:31:33;;;;;;;9.25;4.17;;;;;;;14.23;64.14;99737.05;1734948;83;21103;-59
2022/05/14 03:34:03;;;;;;;7.90;5.12;;;;;;;14.28;63.87;99739.09;1734947;83;20960;-58
2022/05/14 03:36:31;;;;;;;13.22;5.53;;;;;;;14.32;63.80;99738.11;1734960;83;20987;-59
2022/05/14 03:39:00;;;;;;;10.85;6.08;;;;;;;14.35;63.75;99743.14;1734961;83;21477;-58
2022/05/14 03:41:29;;;;;;;13.00;5.53;;;;;;;14.36;63.73;99762.20;1734930;83;20967;-58
2022/05/14 03:43:58;;;;;;;9.50;5.08;;;;;;;14.36;63.77;99751.71;1734947;83;21003;-59
2022/05/14 03:46:27;;;;;;;8.03;5.20;;;;;;;14.41;63.74;99736.14;1734975;83;21403;-59
2022/05/14 03:48:56;;;;;;;10.15;5.30;;;;;;;14.48;63.68;99734.67;1734969;83;21008;-58
2022/05/14 03:51:27;;;;;;;10.28;4.92;;;;;;;14.52;63.76;99729.82;1734877;82;20991;-58
2022/05/14 03:53:58;;;;;;;10.45;5.78;;;;;;;14.55;63.77;99736.77;1734981;82;20987;-58
2022/05/14 03:56:27;;;;;;;13.25;5.05;;;;;;;14.55;63.83;99733.47;1734969;83;20980;-59
2022/05/14 03:58:56;;;;;;;20.30;6.45;;;;;;;14.57;64.00;99727.18;1735085;82;21007;-58
2022/05/14 04:01:25;;;;;;;14.55;6.50;;;;;;;14.62;64.09;99730.59;1710308;83;21020;-59
2022/05/14 04:03:54;;;;;;;14.75;5.30;;;;;;;14.67;64.21;99723.81;1734991;83;21410;-58
2022/05/14 04:06:23;;;;;;;11.12;4.90;;;;;;;14.73;64.20;99719.26;1734922;83;20999;-59
2022/05/14 04:08:51;;;;;;;11.18;5.33;;;;;;;14.80;64.17;99712.53;1734902;83;21019;-59
2022/05/14 04:11:21;;;;;;;8.65;4.55;;;;;;;14.88;63.99;99721.81;1734902;83;20988;-60
2022/05/14 04:13:50;;;;;;;7.47;4.72;;;;;;;14.94;63.72;99726.06;1735010;82;21011;-58
2022/05/14 04:16:19;;;;;;;8.85;4.20;;;;;;;15.01;63.61;99724.88;1734947;82;21031;-59
2022/05/14 04:18:48;;;;;;;8.80;4.45;;;;;;;15.08;63.52;99715.09;1734918;83;21427;-59
2022/05/14 04:21:17;;;;;;;7.37;4.10;;;;;;;15.14;63.40;99713.56;1735035;83;20991;-60
2022/05/14 04:23:45;;;;;;;8.58;3.95;;;;;;;15.21;63.08;99721.70;1734961;83;21007;-59
2022/05/14 04:26:15;;;;;;;11.03;4.53;;;;;;;15.26;62.85;99714.91;1734966;83;21462;-59
2022/05/14 04:28:46;;;;;;;8.08;4.17;;;;;;;15.31;62.68;99709.49;1735032;83;20971;-59
2022/05/14 04:31:14;;;;;;;6.50;4.17;;;;;;;15.35;62.48;99707.92;1734908;83;21431;-57
2022/05/14 04:33:43;;;;;;;7.47;4.05;;;;;;;15.39;62.38;99711.86;1734863;83;20983;-58
2022/05/14 04:36:12;;;;;;;8.83;4.67;;;;;;;15.44;62.27;99709.20;1735111;83;21023;-59
2022/05/14 04:38:42;;;;;;;9.40;4.67;;;;;;;15.51;62.22;99712.66;1735161;83;21011;-60
2022/05/14 04:41:11;;;;;;;10.45;4.50;;;;;;;15.58;62.04;99705.63;1734903;83;21110;-59
2022/05/14 04:43:39;;;;;;;13.28;4.60;;;;;;;15.68;61.74;99705.02;1734896;83;20995;-59
2022/05/14 04:46:08;;;;;;;11.03;4.28;;;;;;;15.73;61.43;99700.96;1734846;83;21015;-59
2022/05/14 04:48:38;;;;;;;12.68;4.30;;;;;;;15.81;61.28;99701.94;1735093;83;21004;-59
2022/05/14 04:51:07;;;;;;;8.75;3.80;;;;;;;15.90;61.01;99697.68;1734959;82;21396;-59
2022/05/14 04:53:35;;;;;;;5.15;3.70;;;;;;;15.98;60.84;99702.79;1735385;81;20991;-59
2022/05/14 04:56:04;;;;;;;8.15;4.22;;;;;;;16.06;60.89;99700.99;1735515;83;21003;-59
2022/05/14 04:58:34;;;;;;;5.78;3.72;;;;;;;16.14;60.76;99706.11;1735432;83;20971;-59
2022/05/14 05:01:04;;;;;;;11.10;4.45;;;;;;;16.22;60.46;99700.70;1735420;83;20979;-57
2022/05/14 05:03:33;;;;;;;10.68;4.83;;;;;;;16.31;60.11;99703.91;1735444;82;20979;-57
2022/05/14 05:06:04;;;;;;;21.00;8.70;;;;;;;16.38;60.12;99699.05;1735366;82;20976;-58
2022/05/14 05:08:33;;;;;;;18.55;8.28;;;;;;;16.44;60.04;99715.46;1735499;83;20975;-58
2022/05/14 05:11:02;;;;;;;12.95;6.70;;;;;;;16.53;59.92;99733.02;1735337;83;20988;-59
2022/05/14 05:13:31;;;;;;;8.55;4.08;;;;;;;16.62;59.74;99736.47;1735435;83;20971;-59
2022/05/14 05:16:00;;;;;;;12.93;3.90;;;;;;;16.68;58.71;99716.12;1735460;82;21003;-58
2022/05/14 05:18:29;;;;;;;8.85;3.70;;;;;;;16.74;58.01;99728.94;1735462;82;21008;-58
2022/05/14 05:20:58;;;;;;;8.90;3.35;;;;;;;16.82;56.88;99718.53;1735504;82;20995;-59
2022/05/14 05:23:27;;;;;;;8.60;3.35;;;;;;;16.88;56.38;99703.67;1735452;83;21403;-59
2022/05/14 05:25:57;;;;;;;6.28;3.25;;;;;;;16.94;55.95;99703.52;1735373;83;21426;-59
2022/05/14 05:28:26;;;;;;;7.50;3.37;;;;;;;17.01;55.33;99711.08;1735371;82;21494;-59
2022/05/14 05:30:56;;;;;;;6.37;3.10;;;;;;;17.11;55.00;99717.30;1735407;82;21411;-59
2022/05/14 05:33:25;;;;;;;5.35;3.02;;;;;;;17.19;54.05;99714.08;1735602;83;21026;-59
2022/05/14 05:35:54;;;;;;;7.08;3.12;;;;;;;17.28;54.20;99719.45;1735497;83;21416;-58
2022/05/14 05:38:22;;;;;;;10.82;3.33;;;;;;;17.38;53.62;99720.95;1735361;83;21007;-59
2022/05/14 05:40:52;;;;;;;9.78;3.22;;;;;;;17.43;53.34;99716.86;1735591;83;21412;-59
2022/05/14 05:43:21;;;;;;;7.67;3.30;;;;;;;17.48;53.25;99718.02;1735460;83;20959;-59
2022/05/14 05:45:50;;;;;;;6.47;3.17;;;;;;;17.55;53.17;99725.57;1735464;83;21451;-58
2022/05/14 05:48:21;;;;;;;7.87;3.67;;;;;;;17.62;52.62;99723.47;1735433;83;21003;-61
2022/05/14 05:50:51;;;;;;;7.65;3.42;;;;;;;17.66;52.52;99717.70;1735340;83;21027;-60
2022/05/14 05:56:46;;;;;;;7.28;3.65;;;;;;;17.66;52.26;99724.11;1734973;81;21059;-60
2022/05/14 05:58:38;;;;;;;8.95;3.47;;;;;;;17.66;52.03;99721.84;1735333;82;20999;-59
2022/05/14 06:01:06;;;;;;;8.70;3.55;;;;;;;17.62;51.97;99720.70;1734837;83;20988;-59
2022/05/14 06:03:35;;;;;;;9.78;4.00;;;;;;;17.59;52.20;99718.45;1735094;83;21423;-60
2022/05/14 06:06:05;;;;;;;12.35;4.12;;;;;;;17.59;52.43;99713.74;1734972;82;21375;-61
2022/05/14 06:08:34;;;;;;;7.20;3.83;;;;;;;17.60;52.40;99714.58;1734925;83;20991;-60
2022/05/14 06:11:04;;;;;;;8.23;4.00;;;;;;;17.58;52.25;99709.84;1734890;83;21039;-61
2022/05/14 06:13:33;;;;;;;8.55;4.03;;;;;;;17.57;52.28;99716.48;1734832;82;20996;-59
2022/05/14 06:16:02;;;;;;;7.97;4.42;;;;;;;17.59;52.59;99714.30;1734995;83;20983;-59
2022/05/14 06:18:31;;;;;;;10.45;3.77;;;;;;;17.62;52.61;99711.84;1734903;82;21423;-60
2022/05/14 06:20:59;;;;;;;13.40;4.72;;;;;;;17.61;52.68;99717.64;1735083;83;20959;-64
2022/05/14 06:23:28;;;;;;;9.68;4.58;;;;;;;17.61;52.74;99717.64;1734813;83;21360;-59
2022/05/14 06:25:57;;;;;;;10.45;5.20;;;;;;;17.63;52.81;99716.28;1734836;83;20975;-60
2022/05/14 06:28:25;;;;;;;13.78;5.03;;;;;;;17.67;52.69;99713.86;1734897;82;21075;-60
2022/05/14 06:30:55;;;;;;;12.60;5.08;;;;;;;17.68;52.35;99711.37;1734910;82;21035;-59
2022/05/14 06:33:26;;;;;;;10.40;5.37;;;;;;;17.69;52.33;99713.05;1706231;83;20967;-60
2022/05/14 06:35:55;;;;;;;10.63;5.05;;;;;;;17.71;52.55;99710.85;1735027;83;21398;-60
2022/05/14 06:38:24;;;;;;;11.53;4.95;;;;;;;17.77;52.50;99710.35;1734969;83;20999;-59
2022/05/14 06:40:53;;;;;;;8.53;4.72;;;;;;;17.82;52.29;99704.31;1735162;82;21391;-59
2022/05/14 06:43:22;;;;;;;15.00;5.67;;;;;;;17.86;52.33;99708.23;1734924;83;21111;-60
2022/05/14 06:45:51;;;;;;;14.53;5.67;;;;;;;17.95;52.27;99709.42;1734996;83;20956;-59
2022/05/14 06:48:21;;;;;;;11.40;5.35;;;;;;;18.04;52.13;99709.78;1734997;82;21044;-60
2022/05/14 06:50:51;;;;;;;8.90;5.30;;;;;;;18.11;51.81;99719.27;1734935;83;21043;-60
2022/05/14 06:53:20;;;;;;;10.85;5.22;;;;;;;18.14;51.75;99722.34;1735159;82;21443;-58
2022/05/14 06:55:53;;;;;;;14.45;6.15;;;;;;;18.23;51.84;99734.66;1733923;83;21019;-60
2022/05/14 06:58:26;;;;;;;10.40;5.53;;;;;;;18.36;51.57;99737.54;1735492;82;20996;-60
2022/05/14 07:00:56;;;;;;;10.40;5.90;;;;;;;18.51;51.41;99728.50;1733904;83;21384;-61
2022/05/14 07:09:00;;;;;;;11.40;5.42;;;;;;;18.88;50.03;99729.91;1735512;83;21007;-60
2022/05/14 07:11:28;;;;;;;14.10;6.33;;;;;;;18.93;49.57;99740.50;1733890;83;21433;-59
2022/05/14 07:13:57;;;;;;;15.85;6.53;;;;;;;18.93;49.65;99743.83;1735492;83;20968;-59
2022/05/14 07:16:26;;;;;;;9.48;5.72;;;;;;;18.94;49.34;99749.66;1734174;83;21032;-60
2022/05/14 07:18:55;;;;;;;19.87;6.22;;;;;;;18.95;49.24;99749.95;1735876;82;20968;-59
2022/05/14 07:21:26;;;;;;;14.13;7.30;;;;;;;18.95;48.87;99749.39;1735219;83;20961;-59
2022/05/14 07:23:55;;;;;;;16.65;8.45;;;;;;;19.00;47.15;99749.42;1735626;83;20993;-59
2022/05/14 07:26:23;;;;;;;18.30;9.13;;;;;;;19.08;45.95;99743.08;1734487;83;21420;-59
2022/05/14 07:28:52;;;;;;;17.17;9.35;;;;;;;19.14;45.82;99755.33;1734074;83;21000;-59
2022/05/14 07:31:28;;;;;;;16.90;8.73;;;;;;;19.20;45.86;99750.08;1733855;83;21016;-59
2022/05/14 07:34:12;;;;;;;23.05;9.30;;;;;;;19.29;45.55;99755.41;1733904;83;21459;-60
2022/05/14 07:36:55;;;;;;;17.42;8.78;;;;;;;19.39;45.53;99761.55;1733860;82;20968;-59
2022/05/14 07:39:28;;;;;;;22.05;9.75;;;;;;;19.50;44.41;99759.66;1733768;83;21475;-60
2022/05/14 07:41:59;;;;;;;18.52;9.60;;;;;;;19.57;44.51;99758.91;1733986;83;20969;-60
2022/05/14 07:44:31;;;;;;;20.57;10.32;;;;;;;19.61;44.22;99759.48;1733872;83;21040;-59
2022/05/14 07:47:01;;;;;;;20.90;9.20;;;;;;;19.70;44.39;99758.95;1733442;83;21379;-62
2022/05/14 07:49:32;;;;;;;31.35;10.48;;;;;;;19.78;43.62;99760.64;1733261;83;21001;-62
2022/05/14 07:52:01;;;;;;;20.25;9.80;;;;;;;19.82;43.21;99770.11;1736054;82;20997;-60
2022/05/14 07:54:30;;;;;;;18.17;9.20;;;;;;;19.81;43.35;99773.16;1746617;81;21466;-62
2022/05/14 07:57:00;;;;;;;24.67;10.08;;;;;;;19.75;43.20;99768.14;1743351;82;21021;-62
2022/05/14 07:59:29;;;;;;;16.35;9.10;;;;;;;19.70;43.17;99775.08;1743756;82;21024;-60
2022/05/14 08:01:57;;;;;;;20.70;9.28;;;;;;;19.64;42.59;99781.72;1715963;82;20998;-60
2022/05/14 08:04:26;;;;;;;19.37;9.93;;;;;;;19.57;42.79;99794.48;1710235;84;21002;-61
2022/05/14 08:06:55;;;;;;;17.75;10.25;;;;;;;19.50;43.01;99784.66;1714893;82;20976;-59
2022/05/14 08:09:23;;;;;;;21.70;10.00;;;;;;;19.46;42.82;99789.92;1739572;82;20997;-61
2022/05/14 08:11:53;;;;;;;23.40;10.00;;;;;;;19.39;43.37;99792.67;1739501;82;21047;-61
2022/05/14 08:14:22;;;;;;;23.65;10.05;;;;;;;19.35;43.34;99792.38;1739430;82;20964;-62
2022/05/14 08:16:52;;;;;;;19.52;9.85;;;;;;;19.27;43.46;99796.50;1739623;82;20941;-62
2022/05/14 08:19:21;;;;;;;23.73;9.90;;;;;;;19.21;43.70;99787.02;1716893;82;21459;-62
2022/05/14 08:24:38;;;;;;;17.57;9.23;;;;;;;19.15;44.15;99791.71;1727212;82;21040;-59
2022/05/14 08:27:08;;;;;;;20.00;9.08;;;;;;;19.14;44.23;99794.20;1710114;83;21063;-61
2022/05/14 08:29:38;;;;;;;22.17;9.05;;;;;;;19.16;44.35;99793.94;1710012;83;21008;-62
2022/05/14 08:32:07;;;;;;;18.17;8.98;;;;;;;19.19;44.29;99796.17;1710087;83;21019;-60
2022/05/14 08:34:36;;;;;;;20.23;9.90;;;;;;;19.19;43.98;99798.40;1719118;82;21021;-59
2022/05/14 08:37:07;;;;;;;20.48;9.63;;;;;;;19.12;43.75;99797.80;1739484;82;20997;-59
2022/05/14 08:39:36;;;;;;;18.98;9.35;;;;;;;19.06;44.13;99796.10;1739469;82;21001;-60
2022/05/14 08:42:08;;;;;;;22.05;9.15;;;;;;;19.04;43.94;99794.70;1739065;82;21001;-60
2022/05/14 08:44:37;;;;;;;21.40;8.95;;;;;;;19.02;44.03;99794.97;1739539;82;21037;-59
2022/05/14 08:47:07;;;;;;;20.43;9.10;;;;;;;19.03;44.05;99795.25;1739583;82;21007;-62
2022/05/14 08:49:46;;;;;;;19.40;8.30;;;;;;;19.05;43.98;99804.70;1739678;82;21366;-62
2022/05/14 08:52:21;;;;;;;16.62;8.65;;;;;;;19.07;43.86;99803.87;1739439;82;21016;-58
2022/05/14 08:54:57;;;;;;;16.60;7.58;;;;;;;19.08;42.93;99804.16;1725424;82;21435;-59
2022/05/14 08:58:05;;;;;;;18.92;7.95;;;;;;;19.04;42.48;99803.86;1723331;83;21384;-59
2022/05/14 09:00:34;;;;;;;13.30;7.87;;;;;;;18.99;42.13;99796.34;1694745;84;21052;-59
2022/05/14 09:03:03;;;;;;;17.02;8.00;;;;;;;18.94;42.30;99801.86;1694434;84;21012;-60
2022/05/14 09:05:34;;;;;;;13.75;7.78;;;;;;;18.93;42.33;99803.52;1694534;84;21008;-60
2022/05/14 09:08:04;;;;;;;14.43;7.87;;;;;;;18.93;42.73;99810.45;1694588;84;21006;-59
2022/05/14 09:10:39;;;;;;;15.75;8.38;;;;;;;18.93;42.87;99802.96;1694442;85;21063;-60
2022/05/14 09:13:20;;;;;;;17.10;8.30;;;;;;;18.98;42.71;99805.77;1694435;85;21004;-60
2022/05/14 09:15:59;;;;;;;20.92;8.98;;;;;;;19.04;42.69;99812.20;1694552;85;21130;-60
2022/05/14 09:18:30;;;;;;;15.93;8.43;;;;;;;19.08;42.62;99805.55;1694598;85;21143;-58
2022/05/14 09:21:03;;;;;;;16.95;8.33;;;;;;;19.11;42.51;99803.63;1694512;84;21013;-60
2022/05/14 09:23:46;;;;;;;15.65;8.85;;;;;;;19.15;42.46;99805.60;1694513;85;21003;-60
2022/05/14 09:26:32;;;;;;;17.40;8.60;;;;;;;19.19;42.46;99803.95;1696148;84;21040;-60
2022/05/14 09:29:18;;;;;;;22.75;9.10;;;;;;;19.26;42.48;99800.94;1696830;84;21055;-61
2022/05/14 09:31:59;;;;;;;20.45;9.00;;;;;;;19.35;42.67;99806.81;1696813;84;21009;-59
2022/05/14 09:34:30;;;;;;;18.30;8.95;;;;;;;19.36;42.26;99799.60;1696317;84;21016;-59
2022/05/14 09:37:07;;;;;;;16.75;8.70;;;;;;;19.35;42.29;99797.09;1696694;84;21033;-60
2022/05/14 09:39:38;;;;;;;21.85;11.78;;;;;;;19.37;41.90;99800.44;1696755;84;21448;-59
2022/05/14 09:42:38;;;;;;;20.08;11.53;;;;;;;19.43;41.71;99799.36;1696527;84;21067;-59
2022/05/14 09:45:23;;;;;;;20.45;9.43;;;;;;;19.50;40.87;99796.61;1696625;84;21040;-60
2022/05/14 09:47:53;;;;;;;27.30;13.32;;;;;;;19.60;41.07;99793.10;1696687;84;21037;-59
2022/05/14 09:50:34;;;;;;;19.02;10.60;;;;;;;19.73;40.94;99799.55;1696617;84;21036;-59
2022/05/14 09:53:04;;;;;;;18.87;9.60;;;;;;;19.80;40.64;99789.56;1695365;83;21020;-64
2022/05/14 09:56:25;;;;;;;16.97;8.75;;;;;;;19.84;40.89;99793.46;1694523;85;21040;-62
2022/05/14 09:59:11;;;;;;;17.20;8.30;;;;;;;19.92;41.01;99785.42;1708468;83;21421;-63
2022/05/14 10:01:54;;;;;;;18.48;8.98;;;;;;;20.05;40.94;99787.39;1723353;83;21013;-63
2022/05/14 10:04:56;;;;;;;13.40;8.33;;;;;;;20.14;40.97;99789.36;1698697;83;21477;-62
2022/05/14 10:07:33;;;;;;;14.00;7.50;;;;;;;20.24;40.82;99790.80;1723304;83;21001;-66
2022/05/14 10:10:26;;;;;;;16.02;8.03;;;;;;;20.31;40.62;99781.34;1723221;83;21432;-63
2022/05/14 10:13:07;;;;;;;11.50;7.83;;;;;;;20.34;40.92;99785.80;1722914;83;21067;-62
2022/05/14 10:15:43;;;;;;;10.43;5.62;;;;;;;20.31;40.68;99782.73;1674898;86;21036;-63
2022/05/14 10:18:44;;;;;;;9.83;5.85;;;;;;;20.22;40.10;99782.45;1697651;84;21036;-63
2022/05/14 10:22:09;;;;;;;10.13;4.67;;;;;;;20.13;40.02;99785.47;1681270;84;20987;-62
2022/05/14 10:28:12;;;;;;;8.73;3.72;;;;;;;20.11;39.94;99776.56;1740360;82;21007;-63
2022/05/14 10:31:28;;;;;;;16.60;7.53;;;;;;;20.14;39.95;99777.41;1740381;82;21031;-66
2022/05/14 10:33:58;;;;;;;11.05;5.58;;;;;;;20.22;40.19;99779.67;1723075;80;21041;-62
2022/05/14 10:36:37;;;;;;;13.28;6.20;;;;;;;20.32;40.43;99782.46;1789866;80;20976;-62
2022/05/14 10:39:11;;;;;;;12.55;4.90;;;;;;;20.35;40.69;99786.08;1774814;80;20980;-62
2022/05/14 10:41:49;;;;;;;13.08;4.55;;;;;;;20.38;40.51;99782.74;1790112;80;21008;-63
2022/05/14 10:44:32;;;;;;;7.80;4.50;;;;;;;20.36;40.38;99784.13;1789891;80;21419;-61
2022/05/14 10:47:03;;;;;;;7.15;3.83;;;;;;;20.33;40.19;99780.52;1790059;80;20997;-64
2022/05/14 10:49:55;;;;;;;6.03;3.87;;;;;;;20.28;40.08;99781.34;1789987;80;20981;-62
2022/05/14 10:52:24;;;;;;;7.45;3.77;;;;;;;20.21;40.54;99768.27;1785810;80;20984;-63
2022/05/14 10:54:53;;;;;;;10.75;3.87;;;;;;;20.14;40.91;99768.50;1776567;81;21012;-64
2022/05/14 10:57:27;;;;;;;8.95;4.37;;;;;;;20.20;41.29;99772.16;1776777;81;20998;-63
2022/05/14 11:00:04;;;;;;;8.78;3.98;;;;;;;20.28;41.18;99767.98;1737861;81;21036;-62
2022/05/14 11:02:33;;;;;;;6.15;3.85;;;;;;;20.33;41.46;99766.05;1734635;83;21409;-64
2022/05/14 11:05:02;;;;;;;10.50;4.12;;;;;;;20.38;40.85;99770.78;1734821;83;20938;-62
2022/05/14 11:07:42;;;;;;;4.78;3.02;;;;;;;20.36;40.99;99761.88;1734645;82;21445;-66
2022/05/14 11:10:22;;;;;;;5.60;3.10;;;;;;;20.38;40.23;99766.60;1734615;83;20997;-68
2022/05/14 11:12:52;;;;;;;7.80;3.17;;;;;;;20.40;39.67;99764.41;1734633;82;21433;-62
2022/05/14 11:15:25;;;;;;;5.65;2.15;;;;;;;20.39;39.64;99760.79;1734849;82;21009;-61
2022/05/14 11:18:14;;;;;;;4.25;1.80;;;;;;;20.39;38.14;99762.19;1734761;83;21366;-61
2022/05/14 11:20:56;;;;;;;2.80;1.80;;;;;;;20.36;37.49;99768.27;1734791;83;20989;-61
2022/05/14 11:23:27;;;;;;;4.35;2.02;;;;;;;20.31;37.93;99759.09;1763362;80;21375;-62
2022/05/14 11:26:08;;;;;;;3.33;1.67;;;;;;;20.28;37.40;99761.87;1788295;80;21403;-61
2022/05/14 11:28:37;;;;;;;2.72;1.80;;;;;;;20.24;37.78;99770.49;1777659;80;20937;-62
2022/05/14 11:31:17;;;;;;;5.40;2.25;;;;;;;20.22;37.78;99769.93;1779978;80;21377;-62
2022/05/14 11:33:46;;;;;;;6.85;2.10;;;;;;;20.21;37.79;99774.66;1792856;80;21035;-60
2022/05/14 11:36:21;;;;;;;4.17;2.25;;;;;;;20.20;37.70;99768.81;1764817;79;20955;-61
2022/05/14 11:39:22;;;;;;;4.22;2.08;;;;;;;20.24;37.62;99768.55;1746092;82;20986;-61
2022/05/14 11:41:54;;;;;;;6.15;2.50;;;;;;;20.26;37.67;99773.83;1742400;82;21027;-61
2022/05/14 11:44:50;;;;;;;7.80;2.05;;;;;;;20.32;37.84;99767.16;1746118;81;20991;-67
2022/05/14 11:47:58;;;;;;;5.10;2.35;;;;;;;20.38;37.27;99774.39;1771160;81;21000;-63
2022/05/14 11:50:45;;;;;;;7.58;3.17;;;;;;;20.37;37.64;99775.50;1774587;81;21004;-61
2022/05/14 11:53:31;;;;;;;6.03;2.50;;;;;;;20.34;37.80;99776.06;1771539;81;20974;-60
2022/05/14 11:56:33;;;;;;;8.80;3.10;;;;;;;20.28;37.79;99783.29;1785239;80;20938;-59
2022/05/14 11:59:18;;;;;;;9.38;5.17;;;;;;;20.17;37.94;99788.01;1786500;80;20971;-61
2022/05/14 12:01:48;;;;;;;10.55;5.80;;;;;;;20.04;38.46;99791.29;1800965;79;21507;-61
2022/05/14 12:04:24;;;;;;;10.65;5.15;;;;;;;19.84;39.09;99792.91;1792727;79;20942;-59
2022/05/14 12:07:14;;;;;;;10.50;5.80;;;;;;;19.71;39.54;99794.81;1795454;80;21364;-61
2022/05/14 12:09:54;;;;;;;12.50;6.40;;;;;;;19.61;39.48;99788.66;1785000;80;20964;-62
2022/05/14 12:12:31;;;;;;;11.57;6.00;;;;;;;19.52;39.96;99799.15;1797862;80;20984;-60
2022/05/14 12:15:11;;;;;;;15.53;5.85;;;;;;;19.43;40.32;99788.24;1801035;79;21243;-61